Flight Track Log - Related Links

Times and Time Zones

All times are in EDT time to prevent confusion due to time zone crossing. See the FDX1603 flight status page for this flight to view local times or setup timezone preferences in your user account.

Time Position Orientation Groundspeed Altitude Reporting Facility
EDT Latitude Longitude Course Direction KTS MPH feet Rate Location/Type
Wed 11:16:31 PM 33.6550 -84.4170 North 12 14  Level FlightAware ADS-B
Wed 11:17:21 PM 33.6540 -84.4170 180° South 10 12 43 Level FlightAware ADS-B
Wed 11:20:00 PM 33.7576 -84.1667 North  Level FlightAware Approximate
Wed 11:20:51 PM 33.6530 -84.4180 320° Northwest 26 30  Level FlightAware ADS-B
Wed 11:21:00 PM 33.8587 -84.1920 320° Northwest  Level FlightAware Approximate
Wed 11:21:40 PM 33.6520 -84.4190 220° Southwest 21 24  Level FlightAware ADS-B
Wed 11:22:06 PM 33.6510 -84.4190 180° South 21 24 63 Level FlightAware ADS-B
Wed 11:22:37 PM 33.6510 -84.4210 270° West 27 31 65 Level FlightAware ADS-B
Wed 11:23:31 PM 33.6510 -84.4220 270° West 69 Level FlightAware ADS-B
Wed 11:24:43 PM 33.6500 -84.4220 180° South 24 28 75 Level FlightAware ADS-B
Wed 11:25:21 PM 33.6480 -84.4230 203° Southwest 27 31 86 Level FlightAware ADS-B
Wed 11:25:39 PM 33.6480 -84.4240 270° West 32 37 94 Level FlightAware ADS-B
Wed 11:26:11 PM 33.6480 -84.4270 270° West 34 39 98 Level FlightAware ADS-B
Wed 11:26:25 PM 33.6480 -84.4280 270° West 30 35 106 Level FlightAware ADS-B
Wed 11:27:05 PM 33.6480 -84.4310 270° West 32 37 109 Level FlightAware ADS-B
Wed 11:27:30 PM 33.6480 -84.4330 270° West 34 39 122 Level FlightAware ADS-B
Wed 11:27:43 PM 33.6480 -84.4340 270° West 34 39 132 Level FlightAware ADS-B
Wed 11:28:13 PM 33.6480 -84.4350 270° West 26 30 137 Level FlightAware ADS-B
Wed 11:28:35 PM 33.6480 -84.4370 270° West 27 31 152 Level FlightAware ADS-B
Wed 11:29:03 PM 33.6480 -84.4400 270° West 27 31 165 Level FlightAware ADS-B
Wed 11:30:03 PM 33.6480 -84.4380 90° East 16 18 186 Level FlightAware ADS-B
Wed 11:31:13 PM 33.6470 -84.4380 180° South 12 14 253 Level FlightAware ADS-B
Wed 11:32:21 PM 33.6470 -84.4370 90° East 30 35 438 Level FlightAware ADS-B
Wed 11:32:49 PM 33.6470 -84.4230 90° East 151 174 700 2,100 Climbing FlightAware ADS-B
Wed 11:33:21 PM 33.6470 -84.3970 90° East 161 185 2,100 1,800 Climbing FlightAware ADS-B
Wed 11:33:49 PM 33.6480 -84.3630 88° East 240 276 2,500 2,000 Climbing FlightAware ADS-B
Wed 11:34:15 PM 33.6550 -84.3280 76° East 257 296 3,900 2,889 Climbing FlightAware ADS-B
Wed 11:34:43 PM 33.6640 -84.2860 76° East 278 320 5,100 3,000 Climbing FlightAware ADS-B
Wed 11:34:55 PM 33.6710 -84.2680 65° Northeast 287 330 5,900 3,429 Climbing FlightAware ADS-B
Wed 11:35:11 PM 33.6860 -84.2510 43° Northeast 302 348 6,700 3,214 Climbing FlightAware ADS-B
Wed 11:35:23 PM 33.7010 -84.2420 27° Northeast 310 357 7,400 3,500 Climbing FlightAware ADS-B
Wed 11:35:35 PM 33.7190 -84.2400 North 314 361 8,100 3,188 Climbing FlightAware ADS-B
Wed 11:35:55 PM 33.7490 -84.2410 358° North 320 368 9,100 1,909 Climbing FlightAware ADS-B
Wed 11:36:19 PM 33.7850 -84.2430 357° North 319 367 9,500 720 Climbing FlightAware ADS-B
Wed 11:36:45 PM 33.8230 -84.2450 357° North 319 367 9,700 750 Climbing FlightAware ADS-B
Wed 11:37:23 PM 33.8790 -84.2700 340° North 358 412 10,300 1,902 Climbing FlightAware ADS-B
Wed 11:38:07 PM 33.9410 -84.3180 327° Northwest 377 434 12,300 2,721 Climbing FlightAware ADS-B
Wed 11:38:49 PM 34.0040 -84.3680 327° Northwest 389 448 14,200 2,625 Climbing FlightAware ADS-B
Wed 11:39:27 PM 34.0620 -84.4150 326° Northwest 401 461 15,800 2,442 Climbing FlightAware ADS-B
Wed 11:40:15 PM 34.1370 -84.4740 327° Northwest 412 474 17,700 2,438 Climbing FlightAware ADS-B
Wed 11:40:31 PM 34.1640 -84.4963 326° Northwest 415 478 18,400 2,217 Climbing FlightAware ADS-B
Wed 11:41:01 PM 34.2126 -84.5356 326° Northwest 424 488 19,400 1,962 Climbing FlightAware ADS-B
Wed 11:41:23 PM 34.2485 -84.5649 326° Northwest 433 498 20,100 1,895 Climbing FlightAware ADS-B
Wed 11:41:39 PM 34.2774 -84.5833 332° Northwest 441 507 20,600 2,077 Climbing FlightAware ADS-B
Wed 11:41:49 PM 34.2966 -84.5928 338° Northwest 445 512 21,000 2,087 Climbing FlightAware ADS-B
Wed 11:42:02 PM 34.3214 -84.6025 342° North 449 517 21,400 1,909 Climbing FlightAware ADS-B
Wed 11:42:33 PM 34.3851 -84.6184 348° North 454 522 22,400 1,869 Climbing FlightAware ADS-B
Wed 11:43:03 PM 34.4486 -84.6341 348° North 462 532 23,300 1,700 Climbing FlightAware ADS-B
Wed 11:43:33 PM 34.5123 -84.6499 348° North 470 541 24,100 1,475 Climbing FlightAware ADS-B
Wed 11:44:04 PM 34.5772 -84.6660 348° North 479 551 24,800 1,475 Climbing FlightAware ADS-B
Wed 11:44:34 PM 34.6436 -84.6826 348° North 484 557 25,600 1,700 Climbing FlightAware ADS-B
Wed 11:45:04 PM 34.7106 -84.6988 349° North 487 560 26,500 1,574 Climbing FlightAware ADS-B
Wed 11:45:35 PM 34.7778 -84.7153 349° North 492 566 27,200 1,377 Climbing FlightAware ADS-B
Wed 11:46:05 PM 34.8454 -84.7320 349° North 497 572 27,900 1,400 Climbing FlightAware ADS-B
Wed 11:46:35 PM 34.9144 -84.7495 348° North 500 575 28,600 1,238 Climbing FlightAware ADS-B
Wed 11:47:08 PM 34.9904 -84.7683 349° North 508 585 29,200 1,125 Climbing FlightAware ADS-B
Wed 11:47:39 PM 35.0624 -84.7862 348° North 512 589 29,800 1,355 Climbing FlightAware ADS-B
Wed 11:48:10 PM 35.1327 -84.8036 349° North 512 589 30,600 1,429 Climbing FlightAware ADS-B
Wed 11:48:42 PM 35.2078 -84.8228 348° North 513 590 31,300 1,355 Climbing FlightAware ADS-B
Wed 11:49:12 PM 35.2782 -84.8403 349° North 513 590 32,000 1,000 Climbing FlightAware ADS-B
Wed 11:49:42 PM 35.3490 -84.8581 348° North 523 602 32,300 600 Climbing FlightAware ADS-B
Wed 11:50:12 PM 35.4212 -84.8764 348° North 533 613 32,600 885 Climbing FlightAware ADS-B
Wed 11:50:43 PM 35.4954 -84.8953 348° North 535 616 33,200 1,180 Climbing FlightAware ADS-B
Wed 11:51:13 PM 35.5693 -84.9137 349° North 537 618 33,800 1,300 Climbing FlightAware ADS-B
Wed 11:51:43 PM 35.6425 -84.9321 348° North 536 617 34,500 1,279 Climbing FlightAware ADS-B
Wed 11:52:14 PM 35.7165 -84.9506 349° North 536 617 35,100 1,180 Climbing FlightAware ADS-B
Wed 11:52:44 PM 35.7897 -84.9697 348° North 534 615 35,700 885 Climbing FlightAware ADS-B
Wed 11:53:15 PM 35.8639 -84.9884 348° North 533 613 36,000 295 Climbing FlightAware ADS-B
Wed 11:53:45 PM 35.9371 -85.0075 348° North 531 611 36,000  Level FlightAware ADS-B
Wed 11:54:16 PM 36.0110 -85.0259 349° North 532 612 36,000  Level FlightAware ADS-B
Wed 11:54:46 PM 36.0837 -85.0445 348° North 533 613 36,000  Level FlightAware ADS-B
Wed 11:55:16 PM 36.1571 -85.0639 348° North 535 616 36,000  Level FlightAware ADS-B
Wed 11:55:48 PM 36.2342 -85.0832 349° North 537 618 36,000  Level FlightAware ADS-B
Wed 11:56:22 PM 36.3186 -85.1051 348° North 537 618 36,000  Level FlightAware ADS-B
Wed 11:56:53 PM 36.3921 -85.1239 348° North 536 617 36,000  Level FlightAware ADS-B
Wed 11:57:50 PM 36.5323 -85.1604 348° North 534 615 36,000 -136 Level FlightAware ADS-B
Wed 11:58:21 PM 36.6063 -85.1799 348° North 535 616 35,800 -689 Descending FlightAware ADS-B
Wed 11:58:51 PM 36.6797 -85.1987 348° North 535 616 35,300 -923 Descending FlightAware ADS-B
Wed 11:59:26 PM 36.7633 -85.2204 348° North 538 619 34,800 -896 Descending FlightAware ADS-B
Wed 11:59:58 PM 36.8429 -85.2416 348° North 538 619 34,300 -1,031 Descending FlightAware ADS-B
Thu 12:00:30 AM 36.9203 -85.2620 348° North 541 623 33,700 -1,031 Descending FlightAware ADS-B
Thu 12:01:02 AM 37.0004 -85.2827 348° North 542 624 33,200 -941 Descending FlightAware ADS-B
Thu 12:01:21 AM 37.0457 -85.2949 348° North 542 624 32,900 -980 Descending FlightAware ADS-B
Thu 12:01:51 AM 37.1212 -85.3110 350° North 545 627 32,400 -857 Descending FlightAware ADS-B
Thu 12:02:24 AM 37.2027 -85.3281 351° North 545 627 32,000 -381 Descending FlightAware ADS-B
Thu 12:02:54 AM 37.2774 -85.3440 350° North 541 623 32,000  Level FlightAware ADS-B
Thu 12:03:24 AM 37.3519 -85.3600 350° North 540 621 32,000  Level FlightAware ADS-B
Thu 12:03:55 AM 37.4262 -85.3762 350° North 542 624 32,000  Level FlightAware ADS-B
Thu 12:04:27 AM 37.5056 -85.3937 350° North 544 626 32,000  Level FlightAware ADS-B
Thu 12:04:57 AM 37.5803 -85.4100 350° North 547 629 32,000  Level FlightAware ADS-B
Thu 12:05:31 AM 37.6660 -85.4290 350° North 550 633 32,000  Level FlightAware ADS-B
Thu 12:06:16 AM 37.7780 -85.4540 350° North 551 634 32,000  Level FlightAware ADS-B
Thu 12:06:57 AM 37.8800 -85.4770 350° North 547 629 32,000  Level FlightAware ADS-B
Thu 12:07:31 AM 37.9660 -85.4950 351° North 548 631 32,000 -243 Level FlightAware ADS-B
Thu 12:08:11 AM 38.0640 -85.5170 350° North 531 611 31,700 -1,143 Descending FlightAware ADS-B
Thu 12:08:55 AM 38.1700 -85.5400 350° North 511 588 30,400 -1,846 Descending FlightAware ADS-B
Thu 12:09:29 AM 38.2470 -85.5580 350° North 504 580 29,300 -2,077 Descending FlightAware ADS-B
Thu 12:10:13 AM 38.3490 -85.5810 350° North 492 566 27,700 -2,093 Descending FlightAware ADS-B
Thu 12:10:55 AM 38.4410 -85.6010 350° North 474 545 26,300 -2,000 Descending FlightAware ADS-B
Thu 12:11:37 AM 38.5310 -85.6220 350° North 465 535 24,900 -2,049 Descending FlightAware ADS-B
Thu 12:12:17 AM 38.6140 -85.6410 350° North 453 521 23,500 -2,286 Descending FlightAware ADS-B
Thu 12:13:01 AM 38.7060 -85.6570 352° North 447 514 21,700 -2,500 Descending FlightAware ADS-B
Thu 12:13:41 AM 38.7880 -85.6720 352° North 438 504 20,000 -2,488 Descending FlightAware ADS-B
Thu 12:14:23 AM 38.8670 -85.6860 352° North 432 497 18,300 -2,475 Descending FlightAware ADS-B
Thu 12:15:01 AM 38.9450 -85.6990 353° North 420 483 16,700 -2,400 Descending FlightAware ADS-B
Thu 12:15:13 AM 38.9660 -85.7030 352° North 416 479 16,300 -1,882 Descending FlightAware ADS-B
Thu 12:16:43 AM 39.1360 -85.7330 352° North 388 447 13,500 -1,364 Descending FlightAware ADS-B
Thu 12:17:25 AM 39.2030 -85.7450 352° North 374 430 13,300 -133 Descending FlightAware ADS-B
Thu 12:18:13 AM 39.2730 -85.7580 352° North 374 430 13,300  Level FlightAware ADS-B
Thu 12:18:37 AM 39.3080 -85.7640 352° North 374 430 13,300 -2,053 Level FlightAware ADS-B
Thu 12:20:07 AM 39.4180 -85.8910 318° Northwest 296 341 9,400 -1,809 Descending FlightAware ADS-B
Thu 12:20:53 AM 39.4600 -85.9410 317° Northwest 293 337 9,200 -617 Descending FlightAware ADS-B
Thu 12:21:27 AM 39.4900 -85.9760 318° Northwest 8,800 -885 Descending FlightAware ADS-B
Thu 12:21:54 AM 39.5150 -86.0050 318° Northwest 253 291 8,300 -1,040 Descending FlightAware ADS-B
Thu 12:22:42 AM 39.5590 -86.0590 317° Northwest 244 281 7,500 -1,082 Descending FlightAware ADS-B
Thu 12:22:55 AM 39.5700 -86.0730 316° Northwest 241 277 7,200 -878 Descending FlightAware ADS-B
Thu 12:23:23 AM 39.5930 -86.1000 318° Northwest 238 274 6,900 -545 Descending FlightAware ADS-B
Thu 12:23:39 AM 39.6070 -86.1170 317° Northwest 238 274 6,800 -133 Descending FlightAware ADS-B
Thu 12:24:08 AM 39.6290 -86.1450 316° Northwest 239 275 6,800  Level FlightAware ADS-B
Thu 12:24:35 AM 39.6510 -86.1720 317° Northwest 236 272 6,800  Level FlightAware ADS-B
Thu 12:24:49 AM 39.6560 -86.1890 291° West 222 255 6,800 -714 Level FlightAware ADS-B
Thu 12:25:17 AM 39.6440 -86.2210 244° Southwest 207 238 6,300 -1,071 Descending FlightAware ADS-B
Thu 12:25:45 AM 39.6260 -86.2450 226° Southwest 205 236 5,800 -1,154 Descending FlightAware ADS-B
Thu 12:26:09 AM 39.6100 -86.2690 229° Southwest 206 237 5,300 -1,111 Descending FlightAware ADS-B
Thu 12:26:39 AM 39.5920 -86.2960 229° Southwest 208 239 4,800 -536 Descending FlightAware ADS-B
Thu 12:27:05 AM 39.5750 -86.3210 229° Southwest 209 241 4,800  Level FlightAware ADS-B
Thu 12:27:31 AM 39.5580 -86.3450 227° Southwest 208 239 4,800  Level FlightAware ADS-B
Thu 12:27:57 AM 39.5420 -86.3700 230° Southwest 209 241 4,800  Level FlightAware ADS-B
Thu 12:28:25 AM 39.5240 -86.3970 229° Southwest 209 241 4,800  Level FlightAware ADS-B
Thu 12:28:41 AM 39.5180 -86.4140 245° Southwest 215 247 4,800  Level FlightAware ADS-B
Thu 12:28:51 AM 39.5180 -86.4270 270° West 226 260 4,800 -750 Level FlightAware ADS-B
Thu 12:29:05 AM 39.5250 -86.4440 298° West 235 270 4,500 -1,400 Descending FlightAware ADS-B
Thu 12:29:21 AM 39.5400 -86.4570 326° Northwest 243 280 4,100 -1,500 Descending FlightAware ADS-B
Thu 12:29:29 AM 39.5490 -86.4590 350° North 242 278 3,900 -343 Descending FlightAware ADS-B
Thu 12:29:56 AM 39.5750 -86.4600 358° North 242 278 3,900 -321 Level FlightAware ADS-B
Thu 12:30:25 AM 39.6000 -86.4310 42° Northeast 207 238 3,600 -828 Descending FlightAware ADS-B
Thu 12:30:54 AM 39.6190 -86.4070 44° Northeast 199 229 3,100 -1,071 Descending FlightAware ADS-B
Thu 12:31:21 AM 39.6360 -86.3860 44° Northeast 176 203 2,600 -1,077 Descending FlightAware ADS-B
Thu 12:31:33 AM 39.6430 -86.3780 41° Northeast 159 183 2,400 -1,200 Descending FlightAware ADS-B
Thu 12:32:01 AM 39.6580 -86.3590 44° Northeast 150 173 1,800 -1,091 Descending FlightAware ADS-B
Thu 12:32:17 AM 39.6650 -86.3490 48° Northeast 144 166 1,600 -750 Descending FlightAware ADS-B
Thu 12:32:41 AM 39.6760 -86.3350 44° Northeast 141 162 1,300 -818 Descending FlightAware ADS-B
Thu 12:33:01 AM 39.6860 -86.3220 45° Northeast 142 163 1,000 -783 Descending FlightAware ADS-B
Thu 12:33:27 AM 39.6970 -86.3080 44° Northeast 140 161 700 -346 Descending FlightAware ADS-B
Thu 12:33:53 AM 39.7080 -86.2950 42° Northeast 140 161 700  Level FlightAware ADS-B
Thu 12:34:33 AM 39.7180 -86.2810 47° Northeast 78 90 -1,050 Descending FlightAware ADS-B
Thu 12:35:07 AM 39.7190 -86.2790 57° Northeast 33 38  Level FlightAware ADS-B
Thu 12:35:54 AM 39.7180 -86.2750 108° East 25 29  Level FlightAware ADS-B
Thu 12:36:07 AM 39.7200 -86.2760 339° North 15 17  Level FlightAware ADS-B

Login

Don't have an account? Register now (free) for customized features, flight alerts, and more!